Time;durP1;ratioP1;P1;durP2;ratioP2;P2;SDS_P1;SDS_P2;PMS_P1;PMS_P2;Temp;Humidity;BMP_temperature;BMP_pressure;BME280_temperature;BME280_humidity;BME280_pressure;Samples;Min_cycle;Max_cycle;Signal;HPM_P1;HPM_P2
2024/02/06 00:00:39;;;;;;;1.00;1.00;;;-9.00;99.90;;;;;;5114010;28;20217;-67
2024/02/06 00:03:05;;;;;;;1.00;1.00;;;-9.00;99.90;;;;;;5113743;28;20226;-67
2024/02/06 00:05:31;;;;;;;0.90;0.90;;;-9.10;99.90;;;;;;5113824;28;20188;-67
2024/02/06 00:08:00;;;;;;;1.00;1.00;;;-9.10;99.90;;;;;;5112922;28;20593;-67
2024/02/06 00:10:25;;;;;;;1.00;1.00;;;-9.10;99.90;;;;;;5095108;28;20207;-67
2024/02/06 00:12:51;;;;;;;0.90;0.90;;;-9.00;99.90;;;;;;5113585;28;20199;-66
2024/02/06 00:18:40;;;;;;;0.93;0.93;;;-9.00;99.90;;;;;;5117755;27;21367;-66
2024/02/06 00:24:34;;;;;;;1.20;1.20;;;-9.20;99.90;;;;;;5092909;28;20713;-66
2024/02/06 00:30:48;;;;;;;0.97;0.97;;;-9.30;99.90;;;;;;5092914;28;20207;-67
2024/02/06 00:34:03;;;;;;;;;;;;;;;;;;;;;
2024/02/06 00:37:14;;;;;;;1.00;1.00;;;-9.40;99.90;;;;;;5093507;28;20196;-68
2024/02/06 00:39:39;;;;;;;1.10;1.10;;;-9.50;99.90;;;;;;5091891;28;20204;-67
2024/02/06 00:42:07;;;;;;;1.00;1.00;;;-9.50;99.90;;;;;;5092927;28;20218;-67
2024/02/06 00:44:33;;;;;;;1.00;1.00;;;-9.40;99.90;;;;;;5074473;28;20203;-67
2024/02/06 00:46:59;;;;;;;1.00;1.00;;;-9.40;99.90;;;;;;5080324;28;20196;-67
2024/02/06 00:49:24;;;;;;;1.00;1.00;;;-9.50;99.90;;;;;;5113007;28;20565;-68
2024/02/06 00:51:50;;;;;;;1.00;1.00;;;-9.60;99.90;;;;;;5096128;28;20644;-72
2024/02/06 00:54:15;;;;;;;1.20;1.20;;;-9.60;99.90;;;;;;5094681;28;20228;-72
2024/02/06 00:56:41;;;;;;;1.00;1.00;;;-9.70;99.90;;;;;;5112980;28;20199;-72
2024/02/06 00:59:07;;;;;;;1.00;1.00;;;-9.70;99.90;;;;;;5112948;28;20202;-72
2024/02/06 01:01:32;;;;;;;1.00;1.00;;;-9.70;99.90;;;;;;5112773;28;20219;-72
2024/02/06 01:03:58;;;;;;;1.20;1.20;;;-9.70;99.90;;;;;;5113021;28;20191;-73
2024/02/06 01:06:24;;;;;;;1.07;1.07;;;-9.80;99.90;;;;;;5094532;28;20191;-72
2024/02/06 01:08:50;;;;;;;3.40;3.10;;;-9.80;99.90;;;;;;5094760;28;20287;-72
2024/02/06 01:11:16;;;;;;;1.10;1.10;;;-9.80;99.90;;;;;;5112914;28;20195;-72
2024/02/06 01:13:41;;;;;;;0.90;0.90;;;-9.80;99.90;;;;;;5112442;28;20673;-72
2024/02/06 01:16:07;;;;;;;1.00;1.00;;;-9.80;99.90;;;;;;5112740;28;20195;-72
2024/02/06 01:18:33;;;;;;;0.90;0.90;;;-9.90;99.90;;;;;;5113517;28;20206;-72
2024/02/06 01:20:59;;;;;;;1.00;1.00;;;-9.90;99.90;;;;;;5116857;28;20294;-72
2024/02/06 01:23:25;;;;;;;1.00;1.00;;;-10.00;99.90;;;;;;5097168;28;20682;-72
2024/02/06 01:25:50;;;;;;;1.03;1.03;;;-10.00;99.90;;;;;;5096594;28;20275;-72
2024/02/06 01:28:16;;;;;;;1.00;1.00;;;-10.00;99.90;;;;;;5096432;28;20194;-72
2024/02/06 01:30:42;;;;;;;1.00;1.00;;;-10.00;99.90;;;;;;5096335;28;20192;-72
2024/02/06 01:33:07;;;;;;;1.03;1.03;;;-10.00;99.90;;;;;;5096340;28;20306;-72
2024/02/06 01:35:33;;;;;;;0.90;0.90;;;-10.00;99.90;;;;;;5096284;28;20282;-72
2024/02/06 01:37:59;;;;;;;0.90;0.90;;;-9.90;99.90;;;;;;5096405;28;20200;-72
2024/02/06 01:40:24;;;;;;;0.97;0.97;;;-9.90;99.90;;;;;;5096068;28;20215;-72
2024/02/06 01:42:50;;;;;;;0.87;0.87;;;-10.00;99.90;;;;;;5097147;28;20611;-72
2024/02/06 01:45:16;;;;;;;0.90;0.90;;;-10.10;99.90;;;;;;5096192;28;20782;-72
2024/02/06 01:47:44;;;;;;;1.00;1.00;;;-10.10;99.90;;;;;;5095888;28;20196;-72
2024/02/06 01:50:11;;;;;;;1.10;1.10;;;-10.00;99.90;;;;;;5097084;28;20199;-72
2024/02/06 01:52:37;;;;;;;1.00;1.00;;;-10.00;99.90;;;;;;5115941;28;20257;-72
2024/02/06 01:55:03;;;;;;;1.00;1.00;;;-10.00;99.90;;;;;;5116351;28;20223;-72
2024/02/06 01:57:31;;;;;;;0.90;0.90;;;-10.00;99.90;;;;;;5116236;28;20659;-71
2024/02/06 01:59:58;;;;;;;1.00;1.00;;;-10.00;99.90;;;;;;5099253;28;20218;-73
2024/02/06 02:02:23;;;;;;;1.90;1.80;;;-10.00;99.90;;;;;;5119620;28;20556;-73
2024/02/06 02:04:49;;;;;;;1.10;1.10;;;-10.00;99.90;;;;;;5118542;28;20224;-72
2024/02/06 02:07:15;;;;;;;1.00;1.00;;;-10.00;99.90;;;;;;5118973;28;20270;-72
2024/02/06 02:09:41;;;;;;;1.00;1.00;;;-10.00;99.90;;;;;;5115900;28;20218;-72
2024/02/06 02:12:07;;;;;;;1.07;1.07;;;-10.00;99.90;;;;;;5116394;28;20568;-74
2024/02/06 02:14:33;;;;;;;1.00;1.00;;;-10.10;99.90;;;;;;5103383;28;20195;-73
2024/02/06 02:16:58;;;;;;;1.00;1.00;;;-10.10;99.90;;;;;;5122323;28;20191;-74
2024/02/06 02:19:24;;;;;;;1.00;1.00;;;-10.10;99.90;;;;;;5104744;28;20192;-73
2024/02/06 02:21:49;;;;;;;1.00;1.00;;;-10.10;99.90;;;;;;5118047;28;20255;-74
2024/02/06 02:24:15;;;;;;;1.00;1.00;;;-10.10;99.90;;;;;;5118588;28;20294;-74
2024/02/06 02:26:42;;;;;;;1.00;1.00;;;-10.10;99.90;;;;;;5118397;28;20199;-75
2024/02/06 02:29:08;;;;;;;0.90;0.90;;;-10.00;99.90;;;;;;5100924;28;20188;-75
2024/02/06 02:31:39;;;;;;;1.00;1.00;;;-10.00;99.90;;;;;;5118376;28;20198;-74
2024/02/06 02:34:07;;;;;;;1.00;1.00;;;-10.00;99.90;;;;;;5118225;28;20195;-74
2024/02/06 02:36:33;;;;;;;1.00;1.00;;;-10.00;99.90;;;;;;5117210;28;20191;-74
2024/02/06 02:38:59;;;;;;;1.00;1.00;;;-10.00;99.90;;;;;;5098711;28;20393;-74
2024/02/06 02:41:24;;;;;;;1.10;1.10;;;-10.00;99.90;;;;;;5116875;28;20258;-73
2024/02/06 02:43:50;;;;;;;1.00;1.00;;;-10.00;99.90;;;;;;5116947;28;20663;-74
2024/02/06 02:46:16;;;;;;;0.90;0.90;;;-9.90;99.90;;;;;;5116530;28;20192;-74
2024/02/06 02:48:41;;;;;;;3.93;2.67;;;-9.90;99.90;;;;;;5116355;28;20187;-73
2024/02/06 02:51:07;;;;;;;1.00;1.00;;;-10.00;99.90;;;;;;5116636;28;20217;-73
2024/02/06 02:53:33;;;;;;;1.47;1.37;;;-10.00;99.90;;;;;;5116666;28;20274;-73
2024/02/06 02:55:59;;;;;;;1.00;1.00;;;-10.00;99.90;;;;;;5116058;28;20224;-73
2024/02/06 02:58:24;;;;;;;1.07;1.07;;;-10.00;99.90;;;;;;5115701;28;20472;-73
2024/02/06 03:00:50;;;;;;;1.00;1.00;;;-10.00;99.90;;;;;;5116300;28;20211;-73
2024/02/06 03:03:16;;;;;;;1.00;1.00;;;-10.10;99.90;;;;;;5116383;28;20194;-73
2024/02/06 03:05:42;;;;;;;1.00;1.00;;;-10.10;99.90;;;;;;5118342;28;20266;-73
2024/02/06 03:08:08;;;;;;;1.00;1.00;;;-10.10;99.90;;;;;;5121020;28;20201;-73
2024/02/06 03:10:34;;;;;;;0.90;0.90;;;-10.10;99.90;;;;;;5119051;28;20582;-73
2024/02/06 03:13:00;;;;;;;0.93;0.93;;;-10.20;99.90;;;;;;5118399;28;20198;-74
2024/02/06 03:15:25;;;;;;;1.00;1.00;;;-10.20;99.90;;;;;;5118008;28;20198;-74
2024/02/06 03:17:54;;;;;;;1.00;1.00;;;-10.20;99.90;;;;;;5111713;28;20741;-73
2024/02/06 03:20:20;;;;;;;1.00;1.00;;;-10.20;99.90;;;;;;5096136;28;20200;-73
2024/02/06 03:22:46;;;;;;;1.17;1.17;;;-10.10;99.90;;;;;;5095105;28;20675;-74
2024/02/06 03:25:12;;;;;;;0.97;0.97;;;-10.10;99.90;;;;;;5095373;28;20188;-73
2024/02/06 03:27:41;;;;;;;1.00;1.00;;;-10.10;99.90;;;;;;5076257;28;20285;-74
2024/02/06 03:30:08;;;;;;;1.53;1.43;;;-10.00;99.90;;;;;;5094663;28;20191;-74
2024/02/06 03:32:34;;;;;;;1.00;1.00;;;-10.00;99.90;;;;;;5094754;28;20249;-74
2024/02/06 03:35:00;;;;;;;0.80;0.80;;;-10.00;99.90;;;;;;5095154;28;20189;-74
2024/02/06 03:37:25;;;;;;;1.10;1.10;;;-9.90;99.90;;;;;;5112094;28;20215;-73
2024/02/06 03:39:51;;;;;;;1.00;1.00;;;-10.00;99.90;;;;;;5115243;28;20215;-74
2024/02/06 03:42:17;;;;;;;0.90;0.90;;;-10.00;99.90;;;;;;5114730;28;20203;-74
2024/02/06 03:44:43;;;;;;;1.00;1.00;;;-10.00;99.90;;;;;;5096292;28;20197;-73
2024/02/06 03:47:09;;;;;;;1.00;1.00;;;-10.00;99.90;;;;;;5094416;28;20678;-73
2024/02/06 03:49:35;;;;;;;1.20;1.20;;;-10.00;99.90;;;;;;5075968;28;20249;-74
2024/02/06 03:52:00;;;;;;;0.97;0.97;;;-10.00;99.90;;;;;;5094373;28;20192;-74
2024/02/06 03:54:26;;;;;;;2.13;1.97;;;-10.10;99.90;;;;;;5094052;28;20582;-74
2024/02/06 03:56:52;;;;;;;1.00;1.00;;;-10.10;99.90;;;;;;5076280;28;20210;-73
2024/02/06 03:59:17;;;;;;;1.00;1.00;;;-10.10;99.90;;;;;;5094359;28;20195;-74
2024/02/06 04:01:44;;;;;;;1.00;1.00;;;-10.00;99.90;;;;;;5098225;28;20218;-73
2024/02/06 04:04:10;;;;;;;1.00;1.00;;;-10.10;99.90;;;;;;5114397;28;20653;-73
2024/02/06 04:06:35;;;;;;;0.90;0.90;;;-10.10;99.90;;;;;;5114114;28;20191;-73
2024/02/06 04:09:01;;;;;;;1.00;1.00;;;-10.20;99.90;;;;;;5114423;28;20213;-73
2024/02/06 04:11:27;;;;;;;1.00;1.00;;;-10.20;99.90;;;;;;5095658;28;20195;-74
2024/02/06 04:13:52;;;;;;;1.00;1.00;;;-10.20;99.90;;;;;;5111066;28;20240;-74
2024/02/06 04:16:18;;;;;;;1.00;1.00;;;-10.20;99.90;;;;;;5075819;28;20255;-73
2024/02/06 04:18:44;;;;;;;1.00;1.00;;;-10.20;99.90;;;;;;5075845;28;20253;-74
2024/02/06 04:21:09;;;;;;;1.00;1.00;;;-10.20;99.90;;;;;;5093657;28;20200;-73
2024/02/06 04:23:35;;;;;;;0.90;0.90;;;-10.20;99.90;;;;;;5093433;28;20195;-73
2024/02/06 04:26:00;;;;;;;0.97;0.97;;;-10.20;99.90;;;;;;5093595;28;20707;-73
2024/02/06 04:28:26;;;;;;;1.00;1.00;;;-10.20;99.90;;;;;;5093493;28;20557;-73
2024/02/06 04:30:52;;;;;;;0.90;0.90;;;-10.20;99.90;;;;;;5093639;28;20204;-73
2024/02/06 04:33:18;;;;;;;1.00;1.00;;;-10.30;99.90;;;;;;5093352;28;20203;-73
2024/02/06 04:35:44;;;;;;;3.40;3.10;;;-10.30;99.90;;;;;;5093470;28;20733;-74
2024/02/06 04:38:11;;;;;;;1.27;1.23;;;-10.30;99.90;;;;;;5093502;28;20243;-73
2024/02/06 04:40:37;;;;;;;1.43;1.33;;;-10.30;99.90;;;;;;5093104;28;20207;-74
2024/02/06 04:43:02;;;;;;;1.00;1.00;;;-10.30;99.90;;;;;;5093379;28;20180;-73
2024/02/06 04:45:28;;;;;;;0.87;0.87;;;-10.30;99.90;;;;;;5092954;28;20648;-73
2024/02/06 04:47:54;;;;;;;0.90;0.90;;;-10.30;99.90;;;;;;5093035;28;20557;-73
2024/02/06 04:50:21;;;;;;;0.93;0.93;;;-10.30;99.90;;;;;;5092999;28;20196;-73
2024/02/06 04:52:47;;;;;;;1.00;1.00;;;-10.30;99.90;;;;;;5092960;28;20667;-74
2024/02/06 04:55:12;;;;;;;0.93;0.93;;;-10.40;99.90;;;;;;5093233;28;20228;-73
2024/02/06 04:57:39;;;;;;;0.93;0.93;;;-10.40;99.90;;;;;;5093083;28;20210;-74
2024/02/06 05:00:10;;;;;;;1.07;1.07;;;-10.40;99.90;;;;;;5093431;28;20199;-73
2024/02/06 05:02:36;;;;;;;1.20;1.20;;;-10.40;99.90;;;;;;5092968;28;20196;-73
2024/02/06 05:05:02;;;;;;;1.00;1.00;;;-10.30;99.90;;;;;;5093092;28;20621;-72
2024/02/06 05:07:28;;;;;;;1.10;1.10;;;-10.30;99.90;;;;;;5092772;28;20595;-74
2024/02/06 05:09:54;;;;;;;1.03;1.03;;;-10.30;99.90;;;;;;5092740;28;20199;-73
2024/02/06 05:12:20;;;;;;;0.93;0.93;;;-10.30;99.90;;;;;;5112920;28;20187;-73
2024/02/06 05:14:45;;;;;;;1.00;1.00;;;-10.30;99.90;;;;;;5113159;28;20199;-73
2024/02/06 05:17:11;;;;;;;1.00;1.00;;;-10.30;99.90;;;;;;5113716;28;20194;-74
2024/02/06 05:19:41;;;;;;;1.07;1.07;;;-10.40;99.90;;;;;;5114408;28;20227;-73
2024/02/06 05:22:07;;;;;;;1.00;1.00;;;-10.40;99.90;;;;;;5114064;28;20226;-74
2024/02/06 05:24:33;;;;;;;0.90;0.90;;;-10.40;99.90;;;;;;5114138;28;20644;-73
2024/02/06 05:26:58;;;;;;;1.00;1.00;;;-10.40;99.90;;;;;;5113966;28;20179;-74
2024/02/06 05:29:25;;;;;;;1.47;1.43;;;-10.40;99.90;;;;;;5114099;28;20252;-73
2024/02/06 05:31:51;;;;;;;0.90;0.90;;;-10.40;99.90;;;;;;5112909;28;20276;-67
2024/02/06 05:34:17;;;;;;;1.00;1.00;;;-10.40;99.90;;;;;;5112465;28;20617;-68
2024/02/06 05:36:42;;;;;;;0.93;0.93;;;-10.40;99.90;;;;;;5112625;28;20199;-68
2024/02/06 05:39:09;;;;;;;1.03;1.03;;;-10.40;99.90;;;;;;5112604;28;20223;-68
2024/02/06 05:41:34;;;;;;;1.00;1.00;;;-10.40;99.90;;;;;;5112232;28;20204;-67
2024/02/06 05:44:00;;;;;;;1.50;1.40;;;-10.50;99.90;;;;;;5112557;28;20184;-68
2024/02/06 05:46:26;;;;;;;1.00;1.00;;;-10.50;99.90;;;;;;5112313;28;20194;-67
2024/02/06 05:48:51;;;;;;;1.00;1.00;;;-10.50;99.90;;;;;;5112391;28;20218;-67
2024/02/06 05:51:18;;;;;;;1.33;1.27;;;-10.60;99.90;;;;;;5094158;28;20195;-68
2024/02/06 05:53:44;;;;;;;1.00;1.00;;;-10.60;99.90;;;;;;5112252;28;20328;-67
2024/02/06 05:56:09;;;;;;;1.10;1.10;;;-10.60;99.90;;;;;;5112267;28;20313;-66
2024/02/06 05:58:41;;;;;;;1.00;1.00;;;-10.60;99.90;;;;;;5112217;28;20199;-67
2024/02/06 06:01:07;;;;;;;1.00;1.00;;;-10.60;99.90;;;;;;5093169;28;20243;-68
2024/02/06 06:03:33;;;;;;;1.20;1.17;;;-10.60;99.90;;;;;;5111402;28;20199;-68
2024/02/06 06:05:58;;;;;;;2.20;2.10;;;-10.60;99.90;;;;;;5113405;28;20191;-69
2024/02/06 06:08:24;;;;;;;1.03;1.03;;;-10.60;99.90;;;;;;5095570;28;20192;-68
2024/02/06 06:10:49;;;;;;;1.00;1.00;;;-10.60;99.90;;;;;;5077301;28;20218;-68
2024/02/06 06:13:15;;;;;;;1.00;1.00;;;-10.60;99.90;;;;;;5094847;28;20198;-68
2024/02/06 06:15:41;;;;;;;0.97;0.97;;;-10.70;99.90;;;;;;5094642;28;20188;-68
2024/02/06 06:18:08;;;;;;;0.90;0.90;;;-10.70;99.90;;;;;;5095100;28;20574;-69
2024/02/06 06:20:34;;;;;;;1.00;1.00;;;-10.80;99.90;;;;;;5076944;28;20250;-68
2024/02/06 06:23:00;;;;;;;1.00;1.00;;;-10.80;99.90;;;;;;5095504;28;20193;-67
2024/02/06 06:25:25;;;;;;;1.00;1.00;;;-10.80;99.90;;;;;;5106117;28;20187;-68
2024/02/06 06:27:52;;;;;;;1.00;1.00;;;-10.90;99.90;;;;;;5115658;28;20198;-68
2024/02/06 06:30:19;;;;;;;1.00;1.00;;;-10.90;99.90;;;;;;5115498;28;20188;-68
2024/02/06 06:32:45;;;;;;;1.00;1.00;;;-10.90;99.90;;;;;;5115692;28;20278;-68
2024/02/06 06:35:10;;;;;;;1.10;1.10;;;-10.90;99.90;;;;;;5115631;28;20287;-67
2024/02/06 06:37:36;;;;;;;1.00;1.00;;;-10.90;99.90;;;;;;5115422;28;20274;-67
2024/02/06 06:40:03;;;;;;;0.90;0.90;;;-11.00;99.90;;;;;;5115730;28;20589;-71
2024/02/06 06:42:29;;;;;;;1.03;1.03;;;-11.00;99.90;;;;;;5116314;28;20739;-71
2024/02/06 06:44:55;;;;;;;1.00;1.00;;;-11.00;99.90;;;;;;5116468;28;20226;-71
2024/02/06 06:47:20;;;;;;;1.00;1.00;;;-11.00;99.90;;;;;;5116179;28;20191;-72
2024/02/06 06:49:46;;;;;;;1.03;1.03;;;-11.00;99.90;;;;;;5116197;28;20202;-71
2024/02/06 06:52:12;;;;;;;1.00;1.00;;;-11.00;99.90;;;;;;5115821;28;20191;-71
2024/02/06 06:54:39;;;;;;;0.90;0.90;;;-11.00;99.90;;;;;;5115440;28;20227;-71
2024/02/06 06:57:04;;;;;;;1.00;1.00;;;-11.00;99.90;;;;;;5097176;28;20203;-72
2024/02/06 06:59:31;;;;;;;1.77;1.67;;;-11.00;99.90;;;;;;5115040;28;20199;-71
2024/02/06 07:01:58;;;;;;;1.00;1.00;;;-11.00;99.90;;;;;;5115004;28;20301;-72
2024/02/06 07:04:28;;;;;;;0.90;0.90;;;-11.00;99.90;;;;;;5097584;28;20660;-72
2024/02/06 07:06:54;;;;;;;1.00;1.00;;;-11.00;99.90;;;;;;5094525;28;20216;-72
2024/02/06 07:09:22;;;;;;;1.03;1.03;;;-11.00;99.90;;;;;;5094454;28;20192;-72
2024/02/06 07:11:48;;;;;;;1.00;1.00;;;-11.00;99.90;;;;;;5094455;28;20655;-72
2024/02/06 07:14:14;;;;;;;1.00;1.00;;;-11.00;99.90;;;;;;5094429;28;20235;-72
2024/02/06 07:16:40;;;;;;;1.00;1.00;;;-11.00;99.90;;;;;;5093989;28;20204;-73
2024/02/06 07:19:06;;;;;;;1.10;1.10;;;-11.00;99.90;;;;;;5094434;28;20611;-71
2024/02/06 07:21:32;;;;;;;0.93;0.93;;;-11.00;99.90;;;;;;5085673;28;20236;-71
2024/02/06 07:23:58;;;;;;;1.00;1.00;;;-11.00;99.90;;;;;;5114917;28;20191;-71
2024/02/06 07:26:23;;;;;;;1.57;1.47;;;-11.00;99.90;;;;;;5115096;28;20557;-71
2024/02/06 07:28:49;;;;;;;1.00;1.00;;;-11.00;99.90;;;;;;5115481;28;20274;-72
2024/02/06 07:31:15;;;;;;;1.00;1.00;;;-11.00;99.90;;;;;;5114707;28;20195;-72
2024/02/06 07:33:41;;;;;;;1.00;1.00;;;-10.90;99.90;;;;;;5114578;28;20199;-72
2024/02/06 07:36:06;;;;;;;1.00;1.00;;;-11.00;99.90;;;;;;5096388;28;20234;-71
2024/02/06 07:38:33;;;;;;;0.90;0.90;;;-10.90;99.90;;;;;;5114352;28;20670;-72
2024/02/06 07:41:00;;;;;;;0.90;0.90;;;-10.90;99.90;;;;;;5114258;28;20686;-72
2024/02/06 07:43:29;;;;;;;1.00;1.00;;;-10.80;99.90;;;;;;5095865;28;20281;-72
2024/02/06 07:45:55;;;;;;;1.00;1.00;;;-10.80;99.90;;;;;;5114237;28;20554;-71
2024/02/06 07:48:21;;;;;;;0.90;0.90;;;-10.80;99.90;;;;;;5115175;28;20192;-71
2024/02/06 07:50:48;;;;;;;1.00;1.00;;;-10.80;99.90;;;;;;5115738;28;20659;-71
2024/02/06 07:53:14;;;;;;;1.00;1.00;;;-10.70;99.90;;;;;;5097738;28;20206;-71
2024/02/06 07:55:40;;;;;;;1.00;1.00;;;-10.70;99.90;;;;;;5116157;28;20255;-71
2024/02/06 07:58:06;;;;;;;1.07;1.07;;;-10.70;99.90;;;;;;5115256;28;20200;-70
2024/02/06 08:00:32;;;;;;;0.90;0.90;;;-10.70;99.90;;;;;;5097783;28;20723;-70
2024/02/06 08:02:58;;;;;;;1.00;1.00;;;-10.60;99.90;;;;;;5093703;28;20275;-71
2024/02/06 08:05:24;;;;;;;1.00;1.00;;;-10.50;99.90;;;;;;5093421;28;20648;-69
2024/02/06 08:07:50;;;;;;;1.00;1.00;;;-10.50;99.90;;;;;;5093453;28;20212;-70
2024/02/06 08:10:17;;;;;;;1.00;1.00;;;-10.40;99.90;;;;;;5093673;28;20667;-69
2024/02/06 08:12:43;;;;;;;0.90;0.90;;;-10.30;99.90;;;;;;5075336;28;20200;-71
2024/02/06 08:15:09;;;;;;;1.07;1.07;;;-10.20;99.90;;;;;;5093403;28;20269;-71
2024/02/06 08:17:42;;;;;;;1.10;1.10;;;-10.10;99.90;;;;;;5101272;28;20207;-70
2024/02/06 08:20:09;;;;;;;1.00;1.00;;;-10.10;99.90;;;;;;5113530;28;20188;-70
2024/02/06 08:22:36;;;;;;;1.00;1.00;;;-10.00;99.90;;;;;;5113390;28;20262;-70
2024/02/06 08:25:06;;;;;;;0.90;0.90;;;-9.90;99.90;;;;;;5113630;28;20192;-71
2024/02/06 08:27:32;;;;;;;1.10;1.10;;;-9.80;99.90;;;;;;5113231;28;20278;-72
2024/02/06 08:29:58;;;;;;;0.90;0.90;;;-9.70;99.90;;;;;;5112944;28;20191;-72
2024/02/06 08:32:24;;;;;;;1.00;1.00;;;-9.60;99.90;;;;;;5113142;28;20559;-70
2024/02/06 08:34:49;;;;;;;0.90;0.90;;;-9.50;99.90;;;;;;5113428;28;20567;-70
2024/02/06 08:37:15;;;;;;;1.00;1.00;;;-9.40;99.90;;;;;;5113384;28;20191;-70
2024/02/06 08:39:41;;;;;;;2.77;2.57;;;-9.20;99.90;;;;;;5113210;28;20199;-70
2024/02/06 08:42:06;;;;;;;1.00;1.00;;;-9.10;99.90;;;;;;5113123;28;20294;-71
2024/02/06 08:44:32;;;;;;;1.00;1.00;;;-9.00;99.90;;;;;;5113009;28;20248;-71
2024/02/06 08:46:58;;;;;;;2.57;2.37;;;-8.80;99.90;;;;;;5113281;28;20190;-72
2024/02/06 08:49:24;;;;;;;0.97;0.97;;;-8.70;99.90;;;;;;5113090;28;20558;-73
2024/02/06 08:51:51;;;;;;;1.00;1.00;;;-8.50;99.90;;;;;;5094919;28;20596;-70
2024/02/06 08:54:20;;;;;;;1.00;1.00;;;-8.40;99.90;;;;;;5112804;28;20199;-71
2024/02/06 08:56:47;;;;;;;1.40;1.30;;;-8.20;99.90;;;;;;5096638;28;20196;-71
2024/02/06 08:59:12;;;;;;;1.00;1.00;;;-8.20;99.90;;;;;;5092638;28;20196;-71
2024/02/06 09:01:38;;;;;;;0.80;0.80;;;-8.10;99.90;;;;;;5092537;28;20216;-71
2024/02/06 09:04:06;;;;;;;1.00;1.00;;;-8.00;99.90;;;;;;5092484;28;20244;-71
2024/02/06 09:06:32;;;;;;;0.90;0.90;;;-8.00;99.90;;;;;;5092163;28;20275;-71
2024/02/06 09:08:58;;;;;;;0.90;0.90;;;-7.90;99.90;;;;;;5092603;28;20562;-69
2024/02/06 09:11:27;;;;;;;0.90;0.90;;;-7.80;99.90;;;;;;5094312;28;20652;-70
2024/02/06 09:13:55;;;;;;;0.90;0.90;;;-7.80;99.90;;;;;;5101046;28;20556;-70
2024/02/06 09:16:22;;;;;;;0.90;0.90;;;-7.70;99.90;;;;;;5112760;28;20297;-70
2024/02/06 09:18:51;;;;;;;1.10;1.10;;;-7.70;99.90;;;;;;5112777;28;20192;-71
2024/02/06 09:21:18;;;;;;;1.00;1.00;;;-7.60;99.90;;;;;;5112591;28;20271;-70
2024/02/06 09:23:44;;;;;;;1.00;1.00;;;-7.50;99.90;;;;;;5112653;28;20193;-71
2024/02/06 09:26:10;;;;;;;1.00;1.00;;;-7.40;99.90;;;;;;5112715;28;20191;-71
2024/02/06 09:28:36;;;;;;;1.83;1.73;;;-7.30;99.90;;;;;;5112552;28;20195;-70
2024/02/06 09:31:02;;;;;;;0.90;0.90;;;-7.30;99.90;;;;;;5112725;28;20200;-70
2024/02/06 09:33:28;;;;;;;1.00;1.00;;;-7.20;99.90;;;;;;5112529;28;20198;-70
2024/02/06 09:35:54;;;;;;;0.90;0.90;;;-7.20;99.90;;;;;;5112703;28;20223;-69
2024/02/06 09:38:20;;;;;;;0.90;0.90;;;-7.10;99.90;;;;;;5112419;28;20235;-70
2024/02/06 09:40:47;;;;;;;1.90;1.50;;;-7.20;99.90;;;;;;5115473;28;20290;-70
2024/02/06 09:43:14;;;;;;;0.90;0.90;;;-7.10;99.90;;;;;;5116643;28;20196;-69
2024/02/06 09:45:40;;;;;;;1.00;1.00;;;-7.10;99.90;;;;;;5116484;28;20196;-69
2024/02/06 09:48:07;;;;;;;0.90;0.90;;;-7.00;99.90;;;;;;5116526;28;20705;-69
2024/02/06 09:50:33;;;;;;;0.80;0.80;;;-7.00;99.90;;;;;;5116375;28;20279;-69
2024/02/06 09:53:00;;;;;;;0.93;0.93;;;-6.90;99.90;;;;;;5116020;28;20202;-69
2024/02/06 09:55:26;;;;;;;0.90;0.90;;;-6.90;99.90;;;;;;5097774;28;20267;-69
2024/02/06 09:57:56;;;;;;;1.33;1.27;;;-6.90;99.90;;;;;;5116323;28;20255;-71
2024/02/06 10:00:24;;;;;;;1.93;1.80;;;-6.90;99.90;;;;;;5116261;28;20758;-69
2024/02/06 10:02:56;;;;;;;2.20;2.00;;;-6.90;99.90;;;;;;5097912;28;20659;-69
2024/02/06 10:05:26;;;;;;;1.33;1.27;;;-6.80;99.90;;;;;;5097619;28;20639;-71
2024/02/06 10:07:53;;;;;;;0.90;0.90;;;-6.70;99.90;;;;;;5116135;28;20191;-71
2024/02/06 10:10:53;;;;;;;1.37;1.27;;;-6.70;99.90;;;;;;5116122;28;20191;-69
2024/02/06 10:13:21;;;;;;;0.90;0.90;;;-6.60;99.90;;;;;;5060381;28;20212;-70
2024/02/06 10:15:47;;;;;;;0.90;0.90;;;-6.60;99.90;;;;;;5116374;28;20233;-69
2024/02/06 10:18:13;;;;;;;0.90;0.90;;;-6.60;99.90;;;;;;5098479;28;20202;-69
2024/02/06 10:20:45;;;;;;;0.90;0.90;;;-6.60;99.90;;;;;;5116383;28;20211;-70
2024/02/06 10:23:15;;;;;;;0.90;0.90;;;-6.60;99.90;;;;;;5098185;28;20195;-70
2024/02/06 10:25:42;;;;;;;0.90;0.90;;;-6.70;99.90;;;;;;5116348;28;20188;-68
2024/02/06 10:28:08;;;;;;;0.93;0.93;;;-6.70;99.90;;;;;;5116060;28;20192;-70
2024/02/06 10:30:53;;;;;;;0.83;0.83;;;-6.70;99.90;;;;;;5116925;28;20198;-71
2024/02/06 10:33:39;;;;;;;1.33;1.27;;;-6.60;99.90;;;;;;5119190;28;20195;-72
2024/02/06 10:36:22;;;;;;;0.80;0.80;;;-6.50;99.90;;;;;;5115956;28;20230;-72
2024/02/06 10:38:55;;;;;;;0.90;0.90;;;-6.50;99.90;;;;;;5116245;28;20195;-70
2024/02/06 10:41:21;;;;;;;1.00;1.00;;;-6.40;99.90;;;;;;5115823;28;20302;-71
2024/02/06 10:43:46;;;;;;;1.03;1.03;;;-6.30;99.90;;;;;;5118169;27;20276;-69
2024/02/06 10:46:21;;;;;;;1.00;1.00;;;-6.10;99.90;;;;;;5116093;28;20203;-70
2024/02/06 10:48:47;;;;;;;0.90;0.90;;;-6.00;99.90;;;;;;5115102;28;20187;-69
2024/02/06 10:51:23;;;;;;;1.00;1.00;;;-5.90;99.90;;;;;;5115873;28;20211;-70
2024/02/06 10:53:49;;;;;;;0.90;0.90;;;-5.80;99.90;;;;;;5118233;28;20245;-70
2024/02/06 10:56:18;;;;;;;0.90;0.90;;;-5.70;99.90;;;;;;5116884;28;20235;-70
2024/02/06 10:58:57;;;;;;;0.90;0.90;;;-5.60;99.90;;;;;;5115529;28;20191;-71
2024/02/06 11:01:38;;;;;;;0.88;0.88;;;-5.60;99.90;;;;;;5115727;28;20215;-71
2024/02/06 11:04:14;;;;;;;1.03;1.03;;;-5.50;99.90;;;;;;5115388;28;20201;-71
2024/02/06 11:06:49;;;;;;;0.80;0.80;;;-5.50;99.90;;;;;;5114889;28;20222;-71
2024/02/06 11:09:17;;;;;;;0.80;0.80;;;-5.50;99.90;;;;;;5115116;28;20191;-70
2024/02/06 11:11:44;;;;;;;0.80;0.80;;;-5.60;99.90;;;;;;5114861;28;20669;-71
2024/02/06 11:14:14;;;;;;;0.80;0.80;;;-5.60;99.90;;;;;;5096604;28;20195;-71
2024/02/06 11:16:49;;;;;;;0.80;0.80;;;-5.60;99.90;;;;;;5114850;28;20654;-71
2024/02/06 11:19:31;;;;;;;0.83;0.83;;;-5.60;99.90;;;;;;5115128;28;20199;-70
2024/02/06 11:22:21;;;;;;;1.00;1.00;;;-5.60;99.90;;;;;;5115244;28;20653;-68
2024/02/06 11:24:48;;;;;;;0.90;0.90;;;-5.60;99.90;;;;;;5114795;28;20270;-68
2024/02/06 11:27:14;;;;;;;0.90;0.90;;;-5.60;99.90;;;;;;5114718;28;20709;-68
2024/02/06 11:29:41;;;;;;;0.90;0.90;;;-5.50;99.90;;;;;;5096236;28;20291;-68
2024/02/06 11:32:06;;;;;;;0.90;0.90;;;-5.40;99.90;;;;;;5095129;28;20572;-68
2024/02/06 11:34:32;;;;;;;0.97;0.97;;;-5.40;99.90;;;;;;5093879;28;20286;-68
2024/02/06 11:37:00;;;;;;;3.40;1.40;;;-5.40;99.90;;;;;;5094106;28;20227;-68
2024/02/06 11:39:26;;;;;;;0.93;0.93;;;-5.40;99.90;;;;;;5075756;28;20208;-68
2024/02/06 11:41:52;;;;;;;0.93;0.93;;;-5.30;99.90;;;;;;5094043;28;20307;-68
2024/02/06 11:44:23;;;;;;;0.90;0.90;;;-5.20;99.90;;;;;;5075597;28;20606;-68
2024/02/06 11:46:50;;;;;;;0.80;0.80;;;-5.20;99.90;;;;;;5094168;28;20588;-68
2024/02/06 11:49:23;;;;;;;0.80;0.80;;;-5.20;99.90;;;;;;5093832;28;20648;-68
2024/02/06 11:51:55;;;;;;;0.83;0.83;;;-5.20;99.90;;;;;;5093810;28;20643;-68
2024/02/06 11:54:22;;;;;;;0.93;0.93;;;-5.20;99.90;;;;;;5093349;28;20227;-69
2024/02/06 11:56:48;;;;;;;0.93;0.93;;;-5.10;99.90;;;;;;5093681;28;20678;-68
2024/02/06 11:59:14;;;;;;;0.90;0.90;;;-5.10;99.90;;;;;;5093667;28;20224;-68
2024/02/06 12:01:41;;;;;;;0.90;0.90;;;-5.10;99.90;;;;;;5093587;28;20204;-68
2024/02/06 12:04:07;;;;;;;0.88;0.88;;;-5.10;99.90;;;;;;5112799;28;20187;-68
2024/02/06 12:06:34;;;;;;;0.90;0.90;;;-5.00;99.90;;;;;;5113621;28;20183;-68
2024/02/06 12:09:08;;;;;;;0.90;0.90;;;-4.90;99.90;;;;;;5113958;28;20179;-68
2024/02/06 12:11:46;;;;;;;0.80;0.80;;;-4.80;99.90;;;;;;5113577;28;20545;-68
2024/02/06 12:14:15;;;;;;;0.85;0.85;;;-4.60;99.90;;;;;;5113679;28;20187;-67
2024/02/06 12:16:42;;;;;;;0.70;0.70;;;-4.40;99.90;;;;;;5113450;28;20206;-67
2024/02/06 12:19:09;;;;;;;1.17;1.17;;;-4.30;99.90;;;;;;5113819;28;20278;-68
2024/02/06 12:21:35;;;;;;;0.90;0.90;;;-4.20;99.90;;;;;;5113381;28;20666;-67
2024/02/06 12:24:05;;;;;;;2.37;2.17;;;-4.20;99.90;;;;;;5113495;28;20193;-68
2024/02/06 12:26:32;;;;;;;1.00;1.00;;;-4.20;99.90;;;;;;5112742;28;20603;-68
2024/02/06 12:29:02;;;;;;;0.90;0.90;;;-4.20;99.90;;;;;;5113404;28;20368;-68
2024/02/06 12:31:29;;;;;;;0.80;0.80;;;-4.10;99.90;;;;;;5113155;28;20240;-68
2024/02/06 12:33:55;;;;;;;0.90;0.90;;;-4.10;99.90;;;;;;5113303;28;20701;-68
2024/02/06 12:36:20;;;;;;;0.90;0.90;;;-4.00;99.90;;;;;;5113169;28;20192;-68
2024/02/06 12:38:55;;;;;;;0.70;0.70;;;-4.10;99.90;;;;;;5113315;28;20244;-68
2024/02/06 12:41:23;;;;;;;0.90;0.90;;;-4.10;99.90;;;;;;5112963;28;20742;-68
2024/02/06 12:43:52;;;;;;;0.70;0.70;;;-4.10;99.90;;;;;;5111397;28;20183;-68
2024/02/06 12:46:19;;;;;;;1.00;1.00;;;-4.00;99.90;;;;;;5092447;28;20200;-68
2024/02/06 12:48:49;;;;;;;0.90;0.90;;;-4.00;99.90;;;;;;5092534;28;20192;-68
2024/02/06 12:51:16;;;;;;;0.90;0.90;;;-3.90;99.90;;;;;;5092385;28;20282;-68
2024/02/06 12:53:42;;;;;;;0.90;0.90;;;-3.90;99.90;;;;;;5092093;28;20188;-68